sensor_id;sensor_type;location;lat;lon;timestamp;temperature;humidity
55026;DHT22;40925;45.666;18.994;2023-06-14T03:57:36;384.50;2329.60
55026;DHT22;40925;45.666;18.994;2023-06-14T04:00:01;384.20;2329.60
55026;DHT22;40925;45.666;18.994;2023-06-14T04:02:31;384.20;2329.60
55026;DHT22;40925;45.666;18.994;2023-06-14T04:04:57;384.50;2329.60
55026;DHT22;40925;45.666;18.994;2023-06-14T04:07:23;384.60;2329.60
55026;DHT22;40925;45.666;18.994;2023-06-14T04:54:24;410.50;2355.20
55026;DHT22;40925;45.666;18.994;2023-06-14T05:09:16;435.40;2355.20
55026;DHT22;40925;45.666;18.994;2023-06-14T06:22:39;487.30;2380.80
55026;DHT22;40925;45.666;18.994;2023-06-14T06:25:05;487.20;2380.80
55026;DHT22;40925;45.666;18.994;2023-06-14T06:27:32;487.30;2380.80
55026;DHT22;40925;45.666;18.994;2023-06-14T06:30:00;512.00;2380.80
55026;DHT22;40925;45.666;18.994;2023-06-14T06:32:26;512.20;2380.80
55026;DHT22;40925;45.666;18.994;2023-06-14T06:34:51;512.50;2380.80
55026;DHT22;40925;45.666;18.994;2023-06-14T06:37:17;512.40;2380.80
55026;DHT22;40925;45.666;18.994;2023-06-14T06:39:43;512.40;2380.80
55026;DHT22;40925;45.666;18.994;2023-06-14T06:42:09;512.80;2380.80
55026;DHT22;40925;45.666;18.994;2023-06-14T07:04:15;538.30;2380.80
55026;DHT22;40925;45.666;18.994;2023-06-14T07:06:42;538.10;2380.80
55026;DHT22;40925;45.666;18.994;2023-06-14T07:09:07;538.20;2355.20
55026;DHT22;40925;45.666;18.994;2023-06-14T07:38:28;563.70;1971.20
55026;DHT22;40925;45.666;18.994;2023-06-14T07:40:54;563.90;1945.60
55026;DHT22;40925;45.666;18.994;2023-06-14T07:43:20;563.90;1996.80
55026;DHT22;40925;45.666;18.994;2023-06-14T07:45:45;563.90;1945.60
55026;DHT22;40925;45.666;18.994;2023-06-14T07:48:11;564.00;1945.60
55026;DHT22;40925;45.666;18.994;2023-06-14T07:50:37;588.80;1920.00
55026;DHT22;40925;45.666;18.994;2023-06-14T07:53:03;589.10;1817.60
55026;DHT22;40925;45.666;18.994;2023-06-14T07:55:28;589.30;1920.00
55026;DHT22;40925;45.666;18.994;2023-06-14T07:57:54;589.10;1920.00
55026;DHT22;40925;45.666;18.994;2023-06-14T08:00:20;589.50;1766.40
55026;DHT22;40925;45.666;18.994;2023-06-14T08:02:46;589.60;1792.00
55026;DHT22;40925;45.666;18.994;2023-06-14T08:05:12;614.70;1766.40
55026;DHT22;40925;45.666;18.994;2023-06-14T08:07:39;614.50;1664.00
55026;DHT22;40925;45.666;18.994;2023-06-14T08:10:06;614.40;1561.60
55026;DHT22;40925;45.666;18.994;2023-06-14T08:12:32;614.40;1561.60
55026;DHT22;40925;45.666;18.994;2023-06-14T08:14:58;614.70;1561.60
55026;DHT22;40925;45.666;18.994;2023-06-14T08:17:24;614.50;1536.00
55026;DHT22;40925;45.666;18.994;2023-06-14T08:19:50;589.60;1536.00
55026;DHT22;40925;45.666;18.994;2023-06-14T08:22:16;589.50;1587.20
55026;DHT22;40925;45.666;18.994;2023-06-14T08:24:43;614.50;1561.60
55026;DHT22;40925;45.666;18.994;2023-06-14T08:46:45;640.10;1484.80
55026;DHT22;40925;45.666;18.994;2023-06-14T08:49:13;640.10;1536.00
55026;DHT22;40925;45.666;18.994;2023-06-14T08:51:39;640.10;1484.80
55026;DHT22;40925;45.666;18.994;2023-06-14T08:54:06;615.30;1484.80
55026;DHT22;40925;45.666;18.994;2023-06-14T08:56:32;615.20;1484.80
55026;DHT22;40925;45.666;18.994;2023-06-14T08:59:00;640.90;1536.00
55026;DHT22;40925;45.666;18.994;2023-06-14T09:01:36;665.60;1510.40
55026;DHT22;40925;45.666;18.994;2023-06-14T09:11:23;666.10;1433.60
55026;DHT22;40925;45.666;18.994;2023-06-14T09:13:49;665.70;1484.80
55026;DHT22;40925;45.666;18.994;2023-06-14T09:16:16;640.90;1433.60
55026;DHT22;40925;45.666;18.994;2023-06-14T09:18:43;666.10;1484.80
55026;DHT22;40925;45.666;18.994;2023-06-14T09:33:48;691.40;1433.60
55026;DHT22;40925;45.666;18.994;2023-06-14T09:36:21;691.30;1408.00
55026;DHT22;40925;45.666;18.994;2023-06-14T09:56:35;666.10;1484.80
55026;DHT22;40925;45.666;18.994;2023-06-14T09:59:05;666.40;1484.80
55026;DHT22;40925;45.666;18.994;2023-06-14T10:01:33;691.20;1484.80
55026;DHT22;40925;45.666;18.994;2023-06-14T10:04:06;692.00;1408.00
55026;DHT22;40925;45.666;18.994;2023-06-14T10:06:36;692.10;1433.60
55026;DHT22;40925;45.666;18.994;2023-06-14T10:09:04;692.10;1459.20
55026;DHT22;40925;45.666;18.994;2023-06-14T10:34:25;717.30;1331.20
55026;DHT22;40925;45.666;18.994;2023-06-14T10:37:05;716.90;1356.80
55026;DHT22;40925;45.666;18.994;2023-06-14T10:39:38;691.70;1356.80
55026;DHT22;40925;45.666;18.994;2023-06-14T10:42:05;691.80;1382.40
55026;DHT22;40925;45.666;18.994;2023-06-14T10:44:41;691.40;1408.00
55026;DHT22;40925;45.666;18.994;2023-06-14T10:52:16;692.00;1408.00
55026;DHT22;40925;45.666;18.994;2023-06-14T10:55:01;717.00;1408.00
55026;DHT22;40925;45.666;18.994;2023-06-14T10:57:30;717.10;1382.40
55026;DHT22;40925;45.666;18.994;2023-06-14T10:59:58;691.80;1356.80
55026;DHT22;40925;45.666;18.994;2023-06-14T11:07:55;717.70;1382.40
55026;DHT22;40925;45.666;18.994;2023-06-14T11:10:42;717.40;1382.40
55026;DHT22;40925;45.666;18.994;2023-06-14T11:18:08;716.80;1433.60
55026;DHT22;40925;45.666;18.994;2023-06-14T11:20:37;716.90;1408.00
55026;DHT22;40925;45.666;18.994;2023-06-14T11:23:03;692.10;1356.80
55026;DHT22;40925;45.666;18.994;2023-06-14T11:25:29;717.00;1433.60
55026;DHT22;40925;45.666;18.994;2023-06-14T11:27:56;716.90;1408.00
55026;DHT22;40925;45.666;18.994;2023-06-14T11:30:22;716.80;1408.00
55026;DHT22;40925;45.666;18.994;2023-06-14T11:32:49;692.00;1356.80
55026;DHT22;40925;45.666;18.994;2023-06-14T11:35:16;691.70;1408.00
55026;DHT22;40925;45.666;18.994;2023-06-14T11:37:42;692.00;1356.80
55026;DHT22;40925;45.666;18.994;2023-06-14T11:40:10;691.70;1382.40
55026;DHT22;40925;45.666;18.994;2023-06-14T11:42:41;666.10;1433.60
55026;DHT22;40925;45.666;18.994;2023-06-14T11:45:11;665.80;1459.20
55026;DHT22;40925;45.666;18.994;2023-06-14T11:47:39;666.20;1408.00
55026;DHT22;40925;45.666;18.994;2023-06-14T11:50:09;666.30;1408.00
55026;DHT22;40925;45.666;18.994;2023-06-14T11:52:36;692.00;1382.40
55026;DHT22;40925;45.666;18.994;2023-06-14T11:57:35;717.70;1356.80
55026;DHT22;40925;45.666;18.994;2023-06-14T12:00:08;717.60;1356.80
55026;DHT22;40925;45.666;18.994;2023-06-14T12:02:37;742.80;1356.80
55026;DHT22;40925;45.666;18.994;2023-06-14T12:15:03;742.50;1331.20
55026;DHT22;40925;45.666;18.994;2023-06-14T12:17:34;717.40;1305.60
55026;DHT22;40925;45.666;18.994;2023-06-14T12:20:08;717.60;1382.40
55026;DHT22;40925;45.666;18.994;2023-06-14T12:22:54;742.40;1382.40
55026;DHT22;40925;45.666;18.994;2023-06-14T12:25:35;743.20;1305.60
55026;DHT22;40925;45.666;18.994;2023-06-14T12:30:31;742.50;1305.60
55026;DHT22;40925;45.666;18.994;2023-06-14T12:32:57;717.60;1331.20
55026;DHT22;40925;45.666;18.994;2023-06-14T12:35:23;717.70;1331.20
55026;DHT22;40925;45.666;18.994;2023-06-14T12:37:49;717.30;1331.20
55026;DHT22;40925;45.666;18.994;2023-06-14T12:40:14;742.50;1382.40
55026;DHT22;40925;45.666;18.994;2023-06-14T12:42:41;742.40;1331.20
55026;DHT22;40925;45.666;18.994;2023-06-14T12:45:10;742.80;1331.20
55026;DHT22;40925;45.666;18.994;2023-06-14T12:47:36;743.10;1280.00
55026;DHT22;40925;45.666;18.994;2023-06-14T12:50:02;768.30;1280.00
55026;DHT22;40925;45.666;18.994;2023-06-14T12:52:29;743.00;1280.00
55026;DHT22;40925;45.666;18.994;2023-06-14T12:55:02;717.70;1254.40
55026;DHT22;40925;45.666;18.994;2023-06-14T12:57:28;717.50;1254.40
55026;DHT22;40925;45.666;18.994;2023-06-14T12:59:55;717.40;1280.00
55026;DHT22;40925;45.666;18.994;2023-06-14T13:02:21;717.10;1305.60
55026;DHT22;40925;45.666;18.994;2023-06-14T13:04:57;717.40;1305.60
55026;DHT22;40925;45.666;18.994;2023-06-14T13:07:24;742.40;1331.20
55026;DHT22;40925;45.666;18.994;2023-06-14T13:09:50;742.50;1305.60
55026;DHT22;40925;45.666;18.994;2023-06-14T13:12:16;717.20;1305.60
55026;DHT22;40925;45.666;18.994;2023-06-14T13:17:26;742.60;1356.80
55026;DHT22;40925;45.666;18.994;2023-06-14T13:19:54;742.70;1305.60
55026;DHT22;40925;45.666;18.994;2023-06-14T13:22:21;768.00;1305.60
55026;DHT22;40925;45.666;18.994;2023-06-14T13:24:47;768.20;1280.00
55026;DHT22;40925;45.666;18.994;2023-06-14T13:32:06;743.20;1254.40
55026;DHT22;40925;45.666;18.994;2023-06-14T13:34:32;717.50;1305.60
55026;DHT22;40925;45.666;18.994;2023-06-14T13:44:22;692.10;1280.00
55026;DHT22;40925;45.666;18.994;2023-06-14T13:46:48;691.90;1331.20
55026;DHT22;40925;45.666;18.994;2023-06-14T13:49:13;716.80;1382.40
55026;DHT22;40925;45.666;18.994;2023-06-14T14:01:24;716.80;1459.20
55026;DHT22;40925;45.666;18.994;2023-06-14T14:03:51;692.10;1408.00
55026;DHT22;40925;45.666;18.994;2023-06-14T14:06:16;692.10;1331.20
55026;DHT22;40925;45.666;18.994;2023-06-14T14:08:42;692.00;1356.80
55026;DHT22;40925;45.666;18.994;2023-06-14T14:16:02;717.70;1305.60
55026;DHT22;40925;45.666;18.994;2023-06-14T14:18:28;717.70;1356.80
55026;DHT22;40925;45.666;18.994;2023-06-14T14:20:54;742.50;1305.60
55026;DHT22;40925;45.666;18.994;2023-06-14T14:23:21;742.50;1280.00
55026;DHT22;40925;45.666;18.994;2023-06-14T14:25:47;742.70;1280.00
55026;DHT22;40925;45.666;18.994;2023-06-14T14:28:13;717.20;1331.20
55026;DHT22;40925;45.666;18.994;2023-06-14T14:30:41;717.30;1331.20
55026;DHT22;40925;45.666;18.994;2023-06-14T14:33:07;716.80;1331.20
55026;DHT22;40925;45.666;18.994;2023-06-14T14:35:33;691.60;1356.80
55026;DHT22;40925;45.666;18.994;2023-06-14T14:42:52;692.10;1305.60
55026;DHT22;40925;45.666;18.994;2023-06-14T14:45:18;692.00;1305.60
55026;DHT22;40925;45.666;18.994;2023-06-14T14:47:43;717.00;1305.60
55026;DHT22;40925;45.666;18.994;2023-06-14T14:50:09;717.60;1280.00
55026;DHT22;40925;45.666;18.994;2023-06-14T14:52:35;717.40;1280.00
55026;DHT22;40925;45.666;18.994;2023-06-14T14:55:02;742.40;1408.00
55026;DHT22;40925;45.666;18.994;2023-06-14T14:57:27;717.50;1254.40
55026;DHT22;40925;45.666;18.994;2023-06-14T14:59:55;742.40;1254.40
55026;DHT22;40925;45.666;18.994;2023-06-14T15:02:21;717.70;1254.40
55026;DHT22;40925;45.666;18.994;2023-06-14T15:04:48;742.50;1254.40
55026;DHT22;40925;45.666;18.994;2023-06-14T15:07:13;742.40;1305.60
55026;DHT22;40925;45.666;18.994;2023-06-14T15:16:59;742.50;1254.40
55026;DHT22;40925;45.666;18.994;2023-06-14T15:19:27;717.10;1280.00
55026;DHT22;40925;45.666;18.994;2023-06-14T15:21:52;691.30;1280.00
55026;DHT22;40925;45.666;18.994;2023-06-14T15:24:18;691.90;1331.20
55026;DHT22;40925;45.666;18.994;2023-06-14T15:26:44;691.80;1331.20
55026;DHT22;40925;45.666;18.994;2023-06-14T15:29:09;691.80;1305.60
55026;DHT22;40925;45.666;18.994;2023-06-14T15:34:01;691.30;1331.20
55026;DHT22;40925;45.666;18.994;2023-06-14T15:43:45;665.90;1382.40
55026;DHT22;40925;45.666;18.994;2023-06-14T15:46:11;665.70;1356.80
55026;DHT22;40925;45.666;18.994;2023-06-14T15:58:21;666.30;1331.20
55026;DHT22;40925;45.666;18.994;2023-06-14T16:00:47;666.40;1356.80
55026;DHT22;40925;45.666;18.994;2023-06-14T16:17:51;691.30;1356.80
55026;DHT22;40925;45.666;18.994;2023-06-14T16:20:16;666.10;1382.40
55026;DHT22;40925;45.666;18.994;2023-06-14T16:22:42;665.80;1408.00
55026;DHT22;40925;45.666;18.994;2023-06-14T16:25:08;665.70;1408.00
55026;DHT22;40925;45.666;18.994;2023-06-14T16:27:33;640.80;1408.00
55026;DHT22;40925;45.666;18.994;2023-06-14T16:29:59;665.60;1433.60
55026;DHT22;40925;45.666;18.994;2023-06-14T16:32:25;640.60;1408.00
55026;DHT22;40925;45.666;18.994;2023-06-14T16:34:51;640.60;1408.00
55026;DHT22;40925;45.666;18.994;2023-06-14T16:37:16;665.70;1433.60
55026;DHT22;40925;45.666;18.994;2023-06-14T16:39:42;640.30;1408.00
55026;DHT22;40925;45.666;18.994;2023-06-14T16:42:08;640.20;1459.20
55026;DHT22;40925;45.666;18.994;2023-06-14T16:44:34;640.10;1459.20
55026;DHT22;40925;45.666;18.994;2023-06-14T16:46:59;640.10;1433.60
55026;DHT22;40925;45.666;18.994;2023-06-14T16:49:27;640.20;1459.20
55026;DHT22;40925;45.666;18.994;2023-06-14T16:51:54;640.30;1484.80
55026;DHT22;40925;45.666;18.994;2023-06-14T16:54:19;640.50;1484.80
55026;DHT22;40925;45.666;18.994;2023-06-14T16:56:45;640.70;1459.20
55026;DHT22;40925;45.666;18.994;2023-06-14T16:59:11;640.70;1484.80
55026;DHT22;40925;45.666;18.994;2023-06-14T17:01:37;640.80;1433.60
55026;DHT22;40925;45.666;18.994;2023-06-14T17:04:03;640.70;1459.20
55026;DHT22;40925;45.666;18.994;2023-06-14T17:06:29;640.80;1484.80
55026;DHT22;40925;45.666;18.994;2023-06-14T17:08:55;640.50;1484.80
55026;DHT22;40925;45.666;18.994;2023-06-14T17:11:22;640.20;1510.40
55026;DHT22;40925;45.666;18.994;2023-06-14T17:13:48;640.00;1561.60
55026;DHT22;40925;45.666;18.994;2023-06-14T17:16:14;615.20;1587.20
55026;DHT22;40925;45.666;18.994;2023-06-14T17:18:40;615.00;1612.80
55026;DHT22;40925;45.666;18.994;2023-06-14T17:21:06;615.00;1612.80
55026;DHT22;40925;45.666;18.994;2023-06-14T17:23:32;614.90;1664.00
55026;DHT22;40925;45.666;18.994;2023-06-14T17:25:59;614.90;1664.00
55026;DHT22;40925;45.666;18.994;2023-06-14T17:40:36;614.40;1792.00
55026;DHT22;40925;45.666;18.994;2023-06-14T17:43:02;589.40;1792.00
55026;DHT22;40925;45.666;18.994;2023-06-14T17:45:28;589.40;1843.20
55026;DHT22;40925;45.666;18.994;2023-06-14T17:47:54;589.20;1843.20
55026;DHT22;40925;45.666;18.994;2023-06-14T17:50:20;589.20;1843.20
55026;DHT22;40925;45.666;18.994;2023-06-14T17:52:45;589.20;1843.20
55026;DHT22;40925;45.666;18.994;2023-06-14T17:55:11;589.20;1868.80
55026;DHT22;40925;45.666;18.994;2023-06-14T17:57:37;589.20;1868.80
55026;DHT22;40925;45.666;18.994;2023-06-14T18:00:03;589.40;1894.40
55026;DHT22;40925;45.666;18.994;2023-06-14T18:02:29;588.90;1894.40
55026;DHT22;40925;45.666;18.994;2023-06-14T18:04:54;588.90;1920.00
55026;DHT22;40925;45.666;18.994;2023-06-14T18:07:20;588.90;1920.00
55026;DHT22;40925;45.666;18.994;2023-06-14T18:09:46;588.80;1920.00
55026;DHT22;40925;45.666;18.994;2023-06-14T18:14:38;589.00;1920.00
55026;DHT22;40925;45.666;18.994;2023-06-14T18:17:04;564.10;1945.60
55026;DHT22;40925;45.666;18.994;2023-06-14T18:19:30;564.00;1945.60
55026;DHT22;40925;45.666;18.994;2023-06-14T18:21:56;564.00;1971.20
55026;DHT22;40925;45.666;18.994;2023-06-14T18:24:24;564.10;1971.20
55026;DHT22;40925;45.666;18.994;2023-06-14T18:26:51;563.90;1971.20
55026;DHT22;40925;45.666;18.994;2023-06-14T18:29:17;563.80;2022.40
55026;DHT22;40925;45.666;18.994;2023-06-14T18:31:44;563.80;1996.80
55026;DHT22;40925;45.666;18.994;2023-06-14T18:39:06;564.10;1971.20
55026;DHT22;40925;45.666;18.994;2023-06-14T18:41:32;563.80;2048.00
55026;DHT22;40925;45.666;18.994;2023-06-14T18:43:58;563.80;2048.00
55026;DHT22;40925;45.666;18.994;2023-06-14T18:46:24;563.70;2073.60
55026;DHT22;40925;45.666;18.994;2023-06-14T18:48:51;563.70;2073.60
55026;DHT22;40925;45.666;18.994;2023-06-14T18:51:17;563.60;2048.00
55026;DHT22;40925;45.666;18.994;2023-06-14T18:53:43;563.60;2048.00
55026;DHT22;40925;45.666;18.994;2023-06-14T18:56:09;563.70;2048.00
55026;DHT22;40925;45.666;18.994;2023-06-14T18:58:35;563.70;2048.00
55026;DHT22;40925;45.666;18.994;2023-06-14T19:01:01;563.60;2048.00
55026;DHT22;40925;45.666;18.994;2023-06-14T19:03:26;563.50;2022.40
55026;DHT22;40925;45.666;18.994;2023-06-14T19:05:52;563.30;2073.60
55026;DHT22;40925;45.666;18.994;2023-06-14T19:10:47;563.30;2099.20
55026;DHT22;40925;45.666;18.994;2023-06-14T19:13:13;538.50;2099.20
55026;DHT22;40925;45.666;18.994;2023-06-14T19:15:39;538.40;2124.80
55026;DHT22;40925;45.666;18.994;2023-06-14T19:18:05;538.40;2150.40
55026;DHT22;40925;45.666;18.994;2023-06-14T19:20:31;538.50;2150.40
55026;DHT22;40925;45.666;18.994;2023-06-14T19:22:58;538.30;2176.00
55026;DHT22;40925;45.666;18.994;2023-06-14T19:25:23;538.40;2176.00
55026;DHT22;40925;45.666;18.994;2023-06-14T19:27:53;538.40;2176.00
55026;DHT22;40925;45.666;18.994;2023-06-14T19:30:19;538.40;2176.00
55026;DHT22;40925;45.666;18.994;2023-06-14T19:32:45;538.50;2176.00
55026;DHT22;40925;45.666;18.994;2023-06-14T19:35:12;538.50;2176.00
55026;DHT22;40925;45.666;18.994;2023-06-14T19:37:38;538.50;2176.00
55026;DHT22;40925;45.666;18.994;2023-06-14T19:40:05;538.50;2176.00
55026;DHT22;40925;45.666;18.994;2023-06-14T19:42:31;563.20;2201.60
55026;DHT22;40925;45.666;18.994;2023-06-14T19:44:57;538.50;2201.60
55026;DHT22;40925;45.666;18.994;2023-06-14T19:47:24;538.50;2176.00
55026;DHT22;40925;45.666;18.994;2023-06-14T19:49:51;538.40;2176.00
55026;DHT22;40925;45.666;18.994;2023-06-14T19:52:17;538.30;2176.00
55026;DHT22;40925;45.666;18.994;2023-06-14T19:54:44;538.20;2150.40
55026;DHT22;40925;45.666;18.994;2023-06-14T20:19:11;538.50;2252.80
55026;DHT22;40925;45.666;18.994;2023-06-14T20:21:36;538.30;2304.00
55026;DHT22;40925;45.666;18.994;2023-06-14T22:53:41;460.90;2380.80
55026;DHT22;40925;45.666;18.994;2023-06-14T22:56:11;436.10;2355.20
55026;DHT22;40925;45.666;18.994;2023-06-14T22:58:38;436.10;2355.20
55026;DHT22;40925;45.666;18.994;2023-06-14T23:01:15;436.00;2355.20
55026;DHT22;40925;45.666;18.994;2023-06-14T23:03:42;435.90;2355.20
55026;DHT22;40925;45.666;18.994;2023-06-14T23:06:09;435.90;2355.20
55026;DHT22;40925;45.666;18.994;2023-06-14T23:08:36;435.80;2355.20
55026;DHT22;40925;45.666;18.994;2023-06-14T23:11:12;435.90;2355.20
55026;DHT22;40925;45.666;18.994;2023-06-14T23:13:45;435.90;2355.20
55026;DHT22;40925;45.666;18.994;2023-06-14T23:16:13;435.80;2355.20
55026;DHT22;40925;45.666;18.994;2023-06-14T23:18:40;435.70;2355.20
55026;DHT22;40925;45.666;18.994;2023-06-14T23:21:06;435.70;2355.20
55026;DHT22;40925;45.666;18.994;2023-06-14T23:23:32;435.70;2355.20
55026;DHT22;40925;45.666;18.994;2023-06-14T23:26:07;435.70;2355.20
55026;DHT22;40925;45.666;18.994;2023-06-14T23:28:34;435.70;2355.20
55026;DHT22;40925;45.666;18.994;2023-06-14T23:31:00;435.70;2355.20
55026;DHT22;40925;45.666;18.994;2023-06-14T23:33:33;435.70;2355.20
